sensor_id;sensor_type;location;lat;lon;timestamp;P1;durP1;ratioP1;P2;durP2;ratioP2
7539;SDS011;3811;49.006;12.076;2022-08-21T18:09:33;3.73;;;3.43;;
7539;SDS011;3811;49.006;12.076;2022-08-21T18:12:01;4.30;;;3.90;;
7539;SDS011;3811;49.006;12.076;2022-08-21T18:14:32;3.77;;;3.50;;
7539;SDS011;3811;49.006;12.076;2022-08-21T18:17:05;3.90;;;3.53;;
7539;SDS011;3811;49.006;12.076;2022-08-21T18:19:33;3.80;;;3.50;;
7539;SDS011;3811;49.006;12.076;2022-08-21T18:22:01;4.10;;;3.80;;
7539;SDS011;3811;49.006;12.076;2022-08-21T18:24:35;4.53;;;4.13;;
7539;SDS011;3811;49.006;12.076;2022-08-21T18:27:04;4.10;;;3.80;;
7539;SDS011;3811;49.006;12.076;2022-08-21T18:29:33;5.70;;;3.83;;
7539;SDS011;3811;49.006;12.076;2022-08-21T18:32:05;5.50;;;3.60;;
7539;SDS011;3811;49.006;12.076;2022-08-21T18:34:34;4.03;;;3.70;;
7539;SDS011;3811;49.006;12.076;2022-08-21T18:37:06;7.23;;;3.90;;
7539;SDS011;3811;49.006;12.076;2022-08-21T18:39:35;3.87;;;3.57;;
7539;SDS011;3811;49.006;12.076;2022-08-21T18:42:03;3.70;;;3.40;;
7539;SDS011;3811;49.006;12.076;2022-08-21T18:44:34;3.90;;;3.60;;
7539;SDS011;3811;49.006;12.076;2022-08-21T18:47:03;4.00;;;3.70;;
7539;SDS011;3811;49.006;12.076;2022-08-21T18:49:33;4.47;;;4.07;;
7539;SDS011;3811;49.006;12.076;2022-08-21T18:52:01;4.67;;;4.27;;
7539;SDS011;3811;49.006;12.076;2022-08-21T18:54:28;4.57;;;4.03;;
7539;SDS011;3811;49.006;12.076;2022-08-21T18:56:57;4.23;;;3.90;;
7539;SDS011;3811;49.006;12.076;2022-08-21T18:59:25;5.93;;;4.03;;
7539;SDS011;3811;49.006;12.076;2022-08-21T19:01:53;5.00;;;4.30;;
7539;SDS011;3811;49.006;12.076;2022-08-21T19:04:21;5.00;;;4.47;;
7539;SDS011;3811;49.006;12.076;2022-08-21T19:06:49;4.50;;;4.10;;
7539;SDS011;3811;49.006;12.076;2022-08-21T19:09:17;6.90;;;4.40;;
7539;SDS011;3811;49.006;12.076;2022-08-21T19:11:44;5.20;;;4.70;;
7539;SDS011;3811;49.006;12.076;2022-08-21T19:14:14;5.27;;;4.47;;
7539;SDS011;3811;49.006;12.076;2022-08-21T19:16:41;4.90;;;4.50;;
7539;SDS011;3811;49.006;12.076;2022-08-21T19:19:14;4.70;;;4.30;;
7539;SDS011;3811;49.006;12.076;2022-08-21T19:21:42;4.60;;;4.20;;
7539;SDS011;3811;49.006;12.076;2022-08-21T19:24:12;7.20;;;4.43;;
7539;SDS011;3811;49.006;12.076;2022-08-21T19:26:39;6.33;;;4.03;;
7539;SDS011;3811;49.006;12.076;2022-08-21T19:29:07;4.67;;;4.27;;
7539;SDS011;3811;49.006;12.076;2022-08-21T19:31:44;5.90;;;4.30;;
7539;SDS011;3811;49.006;12.076;2022-08-21T19:34:12;4.70;;;4.30;;
7539;SDS011;3811;49.006;12.076;2022-08-21T19:36:42;4.87;;;4.37;;
7539;SDS011;3811;49.006;12.076;2022-08-21T19:39:10;4.40;;;4.03;;
7539;SDS011;3811;49.006;12.076;2022-08-21T19:41:39;4.63;;;4.23;;
7539;SDS011;3811;49.006;12.076;2022-08-21T19:44:11;6.07;;;4.20;;
7539;SDS011;3811;49.006;12.076;2022-08-21T19:46:40;4.40;;;4.00;;
7539;SDS011;3811;49.006;12.076;2022-08-21T19:49:11;4.17;;;3.87;;
7539;SDS011;3811;49.006;12.076;2022-08-21T19:51:42;4.73;;;4.33;;
7539;SDS011;3811;49.006;12.076;2022-08-21T19:54:10;6.13;;;4.17;;
7539;SDS011;3811;49.006;12.076;2022-08-21T19:56:41;4.10;;;3.70;;
7539;SDS011;3811;49.006;12.076;2022-08-21T19:59:09;4.27;;;3.97;;
7539;SDS011;3811;49.006;12.076;2022-08-21T20:01:37;4.40;;;4.00;;
7539;SDS011;3811;49.006;12.076;2022-08-21T20:04:04;4.03;;;3.73;;
7539;SDS011;3811;49.006;12.076;2022-08-21T20:06:34;4.20;;;3.80;;
7539;SDS011;3811;49.006;12.076;2022-08-21T20:09:02;4.47;;;4.10;;
7539;SDS011;3811;49.006;12.076;2022-08-21T20:11:32;4.20;;;3.90;;
7539;SDS011;3811;49.006;12.076;2022-08-21T20:14:02;5.23;;;4.03;;
7539;SDS011;3811;49.006;12.076;2022-08-21T20:16:31;5.27;;;4.20;;
7539;SDS011;3811;49.006;12.076;2022-08-21T20:18:59;4.70;;;4.30;;
7539;SDS011;3811;49.006;12.076;2022-08-21T20:21:30;4.63;;;4.20;;
7539;SDS011;3811;49.006;12.076;2022-08-21T20:23:59;4.73;;;4.00;;
7539;SDS011;3811;49.006;12.076;2022-08-21T20:26:26;4.87;;;4.27;;
7539;SDS011;3811;49.006;12.076;2022-08-21T20:28:54;4.47;;;4.07;;
7539;SDS011;3811;49.006;12.076;2022-08-21T20:31:21;4.47;;;4.10;;
7539;SDS011;3811;49.006;12.076;2022-08-21T20:33:49;4.20;;;3.90;;
7539;SDS011;3811;49.006;12.076;2022-08-21T20:36:17;4.83;;;4.43;;
7539;SDS011;3811;49.006;12.076;2022-08-21T20:38:44;4.93;;;4.53;;
7539;SDS011;3811;49.006;12.076;2022-08-21T20:41:14;5.40;;;4.90;;
7539;SDS011;3811;49.006;12.076;2022-08-21T20:43:41;4.73;;;4.33;;
7539;SDS011;3811;49.006;12.076;2022-08-21T20:46:08;4.77;;;4.37;;
7539;SDS011;3811;49.006;12.076;2022-08-21T20:48:37;5.27;;;4.77;;
7539;SDS011;3811;49.006;12.076;2022-08-21T20:51:06;7.53;;;4.93;;
7539;SDS011;3811;49.006;12.076;2022-08-21T20:53:35;4.97;;;4.57;;
7539;SDS011;3811;49.006;12.076;2022-08-21T20:56:10;5.33;;;4.60;;
7539;SDS011;3811;49.006;12.076;2022-08-21T20:58:44;4.80;;;4.40;;
7539;SDS011;3811;49.006;12.076;2022-08-21T21:01:19;4.27;;;3.87;;
7539;SDS011;3811;49.006;12.076;2022-08-21T21:03:47;6.67;;;4.70;;
7539;SDS011;3811;49.006;12.076;2022-08-21T21:06:21;4.50;;;4.10;;
7539;SDS011;3811;49.006;12.076;2022-08-21T21:08:52;4.60;;;4.20;;
7539;SDS011;3811;49.006;12.076;2022-08-21T21:11:22;4.73;;;4.23;;
7539;SDS011;3811;49.006;12.076;2022-08-21T21:13:55;4.97;;;4.57;;
7539;SDS011;3811;49.006;12.076;2022-08-21T21:16:29;6.47;;;4.40;;
7539;SDS011;3811;49.006;12.076;2022-08-21T21:19:02;5.80;;;4.63;;
7539;SDS011;3811;49.006;12.076;2022-08-21T21:21:34;4.93;;;4.47;;
7539;SDS011;3811;49.006;12.076;2022-08-21T21:24:08;5.37;;;4.97;;
7539;SDS011;3811;49.006;12.076;2022-08-21T21:26:43;6.70;;;5.20;;
7539;SDS011;3811;49.006;12.076;2022-08-21T21:29:16;5.37;;;4.80;;
7539;SDS011;3811;49.006;12.076;2022-08-21T21:31:46;5.17;;;4.73;;
7539;SDS011;3811;49.006;12.076;2022-08-21T21:34:13;5.00;;;4.60;;
7539;SDS011;3811;49.006;12.076;2022-08-21T21:36:41;5.07;;;4.67;;
7539;SDS011;3811;49.006;12.076;2022-08-21T21:39:14;6.50;;;5.00;;
7539;SDS011;3811;49.006;12.076;2022-08-21T21:41:50;5.97;;;5.00;;
7539;SDS011;3811;49.006;12.076;2022-08-21T21:44:25;5.13;;;4.73;;
7539;SDS011;3811;49.006;12.076;2022-08-21T21:47:03;5.50;;;5.00;;
7539;SDS011;3811;49.006;12.076;2022-08-21T21:49:50;4.97;;;4.57;;
7539;SDS011;3811;49.006;12.076;2022-08-21T21:55:21;5.87;;;5.37;;
7539;SDS011;3811;49.006;12.076;2022-08-21T21:58:01;5.53;;;5.03;;
7539;SDS011;3811;49.006;12.076;2022-08-21T22:00:41;6.30;;;5.80;;
7539;SDS011;3811;49.006;12.076;2022-08-21T22:03:16;6.30;;;5.70;;
7539;SDS011;3811;49.006;12.076;2022-08-21T22:05:50;6.00;;;5.40;;
7539;SDS011;3811;49.006;12.076;2022-08-21T22:08:24;5.87;;;5.37;;
7539;SDS011;3811;49.006;12.076;2022-08-21T22:10:59;8.70;;;5.27;;
7539;SDS011;3811;49.006;12.076;2022-08-21T22:13:35;5.93;;;4.67;;
7539;SDS011;3811;49.006;12.076;2022-08-21T22:16:10;5.60;;;5.10;;
7539;SDS011;3811;49.006;12.076;2022-08-21T22:18:38;6.03;;;5.53;;
7539;SDS011;3811;49.006;12.076;2022-08-21T22:21:09;6.03;;;5.53;;
7539;SDS011;3811;49.006;12.076;2022-08-21T22:23:40;6.33;;;5.73;;
7539;SDS011;3811;49.006;12.076;2022-08-21T22:26:10;8.40;;;6.50;;
7539;SDS011;3811;49.006;12.076;2022-08-21T22:28:43;6.17;;;5.67;;
7539;SDS011;3811;49.006;12.076;2022-08-21T22:31:14;6.00;;;5.50;;
7539;SDS011;3811;49.006;12.076;2022-08-21T22:36:29;6.27;;;5.70;;
7539;SDS011;3811;49.006;12.076;2022-08-21T22:38:56;6.63;;;6.03;;
7539;SDS011;3811;49.006;12.076;2022-08-21T22:41:25;6.40;;;5.80;;
7539;SDS011;3811;49.006;12.076;2022-08-21T22:43:57;6.73;;;5.67;;
7539;SDS011;3811;49.006;12.076;2022-08-21T22:46:28;6.00;;;5.50;;
7539;SDS011;3811;49.006;12.076;2022-08-21T22:49:00;6.00;;;5.40;;
7539;SDS011;3811;49.006;12.076;2022-08-21T22:51:34;7.77;;;5.47;;
7539;SDS011;3811;49.006;12.076;2022-08-21T22:54:02;6.67;;;5.17;;
7539;SDS011;3811;49.006;12.076;2022-08-21T22:56:31;6.40;;;5.80;;
7539;SDS011;3811;49.006;12.076;2022-08-21T22:59:07;6.30;;;5.70;;
7539;SDS011;3811;49.006;12.076;2022-08-21T23:01:52;6.70;;;5.30;;
7539;SDS011;3811;49.006;12.076;2022-08-21T23:04:21;7.70;;;6.20;;
7539;SDS011;3811;49.006;12.076;2022-08-21T23:06:50;5.90;;;5.40;;
7539;SDS011;3811;49.006;12.076;2022-08-21T23:09:24;7.30;;;6.37;;
7539;SDS011;3811;49.006;12.076;2022-08-21T23:11:57;6.77;;;6.07;;
7539;SDS011;3811;49.006;12.076;2022-08-21T23:14:27;10.00;;;6.87;;
7539;SDS011;3811;49.006;12.076;2022-08-21T23:16:58;7.77;;;6.67;;
7539;SDS011;3811;49.006;12.076;2022-08-21T23:19:39;8.60;;;7.70;;
7539;SDS011;3811;49.006;12.076;2022-08-21T23:22:23;8.53;;;7.57;;
7539;SDS011;3811;49.006;12.076;2022-08-21T23:25:14;10.77;;;8.27;;
7539;SDS011;3811;49.006;12.076;2022-08-21T23:27:56;8.97;;;7.83;;
7539;SDS011;3811;49.006;12.076;2022-08-21T23:30:34;9.83;;;7.57;;
7539;SDS011;3811;49.006;12.076;2022-08-21T23:33:12;9.30;;;8.00;;
7539;SDS011;3811;49.006;12.076;2022-08-21T23:35:51;13.57;;;9.07;;
7539;SDS011;3811;49.006;12.076;2022-08-21T23:38:47;10.47;;;7.80;;
7539;SDS011;3811;49.006;12.076;2022-08-21T23:41:22;9.60;;;7.90;;
7539;SDS011;3811;49.006;12.076;2022-08-21T23:44:10;9.13;;;7.60;;
7539;SDS011;3811;49.006;12.076;2022-08-21T23:46:45;8.37;;;7.57;;
7539;SDS011;3811;49.006;12.076;2022-08-21T23:49:27;9.40;;;7.70;;
7539;SDS011;3811;49.006;12.076;2022-08-21T23:52:14;9.27;;;7.57;;
7539;SDS011;3811;49.006;12.076;2022-08-21T23:54:46;8.70;;;7.20;;
7539;SDS011;3811;49.006;12.076;2022-08-21T23:57:36;7.83;;;7.03;;
